Аэропорт: Угольный. Анадырь

ICAO: UHMA

METAR:
2019/03/24 18:00
UHMA 241800Z 03011MPS 8000 -SN BLSN BKN032 OVC041 M08/M10 Q0990 R01/////// NOSIG RMK END R01/03008MPS QFE738/0985
METAR:
2019/03/24 15:26
TAF 
      AMD UHMA 241447Z 2415/2515 05011G16MPS 2000 SN BLSN SCT005 BKN015 
      TEMPO 2415/2421 02014G19MPS 0500 +SHSN BLSN BKN005 BKN020CB 
      TEMPO 2421/2515 10016G21MPS 0200 +SHSN BLSN VV001